createdAt,value
2018-12-27T00:02:09.439Z,91.20
2018-12-27T00:04:37.348Z,91.80
2018-12-27T00:07:05.179Z,92.00
2018-12-27T00:09:36.393Z,91.60
2018-12-27T00:12:04.520Z,92.20
2018-12-27T00:14:32.420Z,92.10
2018-12-27T00:17:00.484Z,91.50
2018-12-27T00:19:28.540Z,92.10
2018-12-27T00:21:56.622Z,92.00
2018-12-27T00:24:24.534Z,91.80
2018-12-27T00:26:52.399Z,92.10
2018-12-27T00:29:22.454Z,91.90
2018-12-27T00:31:50.401Z,92.10
2018-12-27T00:34:18.473Z,92.10
2018-12-27T00:36:46.428Z,92.20
2018-12-27T00:39:14.531Z,91.60
2018-12-27T00:41:42.590Z,92.50
2018-12-27T00:44:10.628Z,92.10
2018-12-27T00:46:38.654Z,91.90
2018-12-27T00:49:06.429Z,91.70
2018-12-27T00:51:38.796Z,92.40
2018-12-27T00:54:06.698Z,92.00
2018-12-27T00:56:34.636Z,92.20
2018-12-27T00:59:02.582Z,92.20
2018-12-27T01:01:30.720Z,92.60
2018-12-27T01:03:58.744Z,92.50
2018-12-27T01:06:26.815Z,92.50
2018-12-27T01:08:54.732Z,93.00
2018-12-27T01:11:22.830Z,92.80
2018-12-27T01:13:50.844Z,93.10
2018-12-27T01:16:18.856Z,92.50
2018-12-27T01:18:46.864Z,93.10
2018-12-27T01:21:16.377Z,93.00
2018-12-27T01:23:44.387Z,92.80
2018-12-27T01:26:12.295Z,93.00
2018-12-27T01:28:40.391Z,92.70
2018-12-27T01:31:08.227Z,92.80
2018-12-27T01:33:36.196Z,92.70
2018-12-27T01:36:04.107Z,92.70
2018-12-27T01:38:34.558Z,93.20
2018-12-27T01:41:02.485Z,93.10
2018-12-27T01:43:30.496Z,92.90
2018-12-27T01:45:58.684Z,92.40
2018-12-27T01:48:26.724Z,92.50
2018-12-27T01:50:54.792Z,92.10
2018-12-27T01:53:22.751Z,92.80
2018-12-27T01:55:50.687Z,92.80
2018-12-27T01:58:20.965Z,92.90
2018-12-27T02:00:48.940Z,92.70
2018-12-27T02:03:16.946Z,93.10
2018-12-27T02:05:44.916Z,92.80
2018-12-27T02:08:13.051Z,93.00
2018-12-27T02:10:41.465Z,92.90
2018-12-27T02:13:14.256Z,92.70
2018-12-27T02:15:42.240Z,93.00
2018-12-27T02:18:10.353Z,93.10
2018-12-27T02:20:38.293Z,93.30
2018-12-27T02:23:08.443Z,92.90
2018-12-27T02:25:39.050Z,92.80
2018-12-27T02:28:09.006Z,92.70
2018-12-27T02:30:37.004Z,92.10
2018-12-27T02:33:05.004Z,92.10
2018-12-27T02:35:33.074Z,92.30
2018-12-27T02:38:01.108Z,92.90
2018-12-27T02:40:29.119Z,93.00
2018-12-27T02:42:57.131Z,93.10
2018-12-27T02:45:25.104Z,93.10
2018-12-27T02:47:53.190Z,92.90
2018-12-27T02:50:23.847Z,92.70
2018-12-27T02:52:52.884Z,92.60
2018-12-27T02:55:21.214Z,92.80
2018-12-27T02:57:49.686Z,92.90
2018-12-27T03:00:18.290Z,92.70
2018-12-27T03:02:49.013Z,92.60
2018-12-27T03:05:17.763Z,92.20
2018-12-27T03:07:45.997Z,92.80
2018-12-27T03:10:21.089Z,92.80
2018-12-27T03:12:55.634Z,92.40
2018-12-27T03:15:27.783Z,92.70
2018-12-27T03:17:56.703Z,93.00
2018-12-27T03:20:30.579Z,92.90
2018-12-27T03:22:58.853Z,92.90
2018-12-27T03:25:33.230Z,93.20
2018-12-27T03:28:01.571Z,93.00
2018-12-27T03:30:31.363Z,92.60
2018-12-27T03:33:00.641Z,92.60
2018-12-27T03:35:31.393Z,92.30
2018-12-27T03:38:00.749Z,92.30
2018-12-27T03:40:30.189Z,92.50
2018-12-27T03:42:58.929Z,92.80
2018-12-27T03:45:26.963Z,93.00
2018-12-27T03:47:55.075Z,93.10
2018-12-27T03:50:23.178Z,93.20
2018-12-27T03:52:51.462Z,93.20
2018-12-27T03:55:19.427Z,93.20
2018-12-27T03:57:47.468Z,93.10
2018-12-27T04:00:15.773Z,93.40
2018-12-27T04:02:46.483Z,93.40
2018-12-27T04:05:15.058Z,93.00
2018-12-27T04:07:45.641Z,93.70
2018-12-27T04:10:13.622Z,93.90
2018-12-27T04:12:41.576Z,93.80
2018-12-27T04:15:09.538Z,93.40
2018-12-27T04:17:39.492Z,93.50
2018-12-27T04:20:07.458Z,93.30
2018-12-27T04:22:37.721Z,93.20
2018-12-27T04:25:05.901Z,93.40
2018-12-27T04:27:33.779Z,93.70
2018-12-27T04:30:01.639Z,93.50
2018-12-27T04:32:30.375Z,93.60
2018-12-27T04:34:58.512Z,94.10
2018-12-27T04:37:26.308Z,94.00
2018-12-27T04:39:54.270Z,94.00
2018-12-27T04:42:22.139Z,94.00
2018-12-27T04:44:50.019Z,93.80
2018-12-27T04:47:18.135Z,93.80
2018-12-27T04:49:46.021Z,93.50
2018-12-27T04:52:15.964Z,93.60
2018-12-27T04:54:43.896Z,93.80
2018-12-27T04:57:11.790Z,93.40
2018-12-27T04:59:39.857Z,93.40
2018-12-27T05:02:07.933Z,93.40
2018-12-27T05:04:35.809Z,93.60
2018-12-27T05:07:05.564Z,93.10
2018-12-27T05:09:33.425Z,93.60
2018-12-27T05:12:01.305Z,93.40
2018-12-27T05:14:29.356Z,93.30
2018-12-27T05:16:59.447Z,93.20
2018-12-27T05:19:28.965Z,93.20
2018-12-27T05:21:56.978Z,93.30
2018-12-27T05:24:24.899Z,93.60
2018-12-27T05:26:52.922Z,93.60
2018-12-27T05:29:20.983Z,93.50
2018-12-27T05:31:48.937Z,93.50
2018-12-27T05:34:25.993Z,93.90
2018-12-27T05:36:48.730Z,93.70
2018-12-27T05:39:16.679Z,94.00
2018-12-27T05:41:44.765Z,93.80
2018-12-27T05:44:15.822Z,93.30
2018-12-27T05:46:43.699Z,93.50
2018-12-27T05:49:11.572Z,93.70
2018-12-27T05:51:39.501Z,93.40
2018-12-27T05:54:10.366Z,94.30
2018-12-27T05:56:40.628Z,94.20
2018-12-27T05:59:08.639Z,93.90
2018-12-27T06:01:36.565Z,94.00
2018-12-27T06:04:04.493Z,94.10
2018-12-27T06:06:34.791Z,94.00
2018-12-27T06:09:04.591Z,93.20
2018-12-27T06:11:32.569Z,93.40
2018-12-27T06:14:00.532Z,93.80
2018-12-27T06:16:29.670Z,93.70
2018-12-27T06:18:59.892Z,93.50
2018-12-27T06:21:27.922Z,93.60
2018-12-27T06:23:55.963Z,93.70
2018-12-27T06:26:24.004Z,93.80
2018-12-27T06:28:54.297Z,93.90
2018-12-27T06:31:23.723Z,93.40
2018-12-27T06:33:53.414Z,93.30
2018-12-27T06:36:21.460Z,93.40
2018-12-27T06:38:49.406Z,93.60
2018-12-27T06:41:20.471Z,93.50
2018-12-27T06:43:48.545Z,93.70
2018-12-27T06:46:16.408Z,93.60
2018-12-27T06:48:44.250Z,93.70
2018-12-27T06:51:12.193Z,93.50
2018-12-27T06:53:39.935Z,93.80
2018-12-27T06:56:07.820Z,93.60
2018-12-27T06:58:37.845Z,93.60
2018-12-27T07:01:05.310Z,93.40
2018-12-27T07:03:33.199Z,93.20
2018-12-27T07:06:01.030Z,93.10
2018-12-27T07:08:28.973Z,93.20
2018-12-27T07:10:56.961Z,92.90
2018-12-27T07:13:24.761Z,92.70
2018-12-27T07:15:52.576Z,93.10
2018-12-27T07:18:20.470Z,93.10
2018-12-27T07:20:48.460Z,93.10
2018-12-27T07:23:16.327Z,92.90
2018-12-27T07:25:44.109Z,93.20
2018-12-27T07:28:11.923Z,93.20
2018-12-27T07:30:39.844Z,93.10
2018-12-27T07:33:07.632Z,93.00
2018-12-27T07:35:35.520Z,93.00
2018-12-27T07:38:05.255Z,92.90
2018-12-27T07:40:33.181Z,92.80
2018-12-27T07:43:00.968Z,92.90
2018-12-27T07:45:28.889Z,92.40
2018-12-27T07:47:56.664Z,92.80
2018-12-27T07:50:24.518Z,92.90
2018-12-27T07:52:52.386Z,92.80
2018-12-27T07:55:20.278Z,92.80
2018-12-27T07:57:48.250Z,92.40
2018-12-27T08:00:16.111Z,92.40
2018-12-27T08:02:44.031Z,92.20
2018-12-27T08:05:11.839Z,92.40
2018-12-27T08:07:39.659Z,92.10
2018-12-27T08:10:07.578Z,92.20
2018-12-27T08:12:35.453Z,92.00
2018-12-27T08:15:03.451Z,92.10
2018-12-27T08:17:31.325Z,91.90
2018-12-27T08:19:59.206Z,91.80
2018-12-27T08:22:26.999Z,91.80
2018-12-27T08:24:54.925Z,91.60
2018-12-27T08:27:22.716Z,91.60
2018-12-27T08:29:50.491Z,91.50
2018-12-27T08:32:18.422Z,91.70
2018-12-27T08:34:46.250Z,91.40
2018-12-27T08:37:14.058Z,92.00
2018-12-27T08:39:41.971Z,91.90
2018-12-27T08:42:09.739Z,92.00
2018-12-27T08:44:37.544Z,92.00
2018-12-27T08:47:05.415Z,91.40
2018-12-27T08:49:33.390Z,91.90
2018-12-27T08:52:01.475Z,91.10
2018-12-27T08:54:29.489Z,90.60
2018-12-27T08:56:57.311Z,90.70
2018-12-27T08:59:25.313Z,90.20
2018-12-27T09:01:53.175Z,89.90
2018-12-27T09:04:24.046Z,90.20
2018-12-27T09:06:51.874Z,89.90
2018-12-27T09:09:19.777Z,88.70
2018-12-27T09:11:47.656Z,87.90
2018-12-27T09:14:16.047Z,86.80
2018-12-27T09:16:43.920Z,88.10
2018-12-27T09:19:11.902Z,86.60
2018-12-27T09:21:45.482Z,85.90
2018-12-27T09:24:13.376Z,86.00
2018-12-27T09:26:41.247Z,84.60
2018-12-27T09:29:09.368Z,84.80
2018-12-27T09:31:39.141Z,86.20
2018-12-27T09:34:07.181Z,85.80
2018-12-27T09:36:38.050Z,84.00
2018-12-27T09:39:07.576Z,83.10
2018-12-27T09:41:35.618Z,84.70
2018-12-27T09:44:05.024Z,84.40
2018-12-27T09:46:33.034Z,84.80
2018-12-27T09:49:01.507Z,84.70
2018-12-27T09:51:39.235Z,83.80
2018-12-27T09:54:07.272Z,82.00
2018-12-27T09:56:41.697Z,84.40
2018-12-27T09:59:11.324Z,83.30
2018-12-27T10:01:42.903Z,79.50
2018-12-27T10:04:17.854Z,77.80
2018-12-27T10:06:49.876Z,78.50
2018-12-27T10:09:18.090Z,80.30
2018-12-27T10:11:46.101Z,79.80
2018-12-27T10:14:14.131Z,79.80
2018-12-27T10:16:42.165Z,77.30
2018-12-27T10:19:10.135Z,77.60
2018-12-27T10:21:38.090Z,77.50
2018-12-27T10:24:06.098Z,77.40
2018-12-27T10:26:33.990Z,76.70
2018-12-27T10:29:02.021Z,75.00
2018-12-27T10:31:29.814Z,74.10
2018-12-27T10:33:57.652Z,74.10
2018-12-27T10:36:25.620Z,74.40
2018-12-27T10:38:59.951Z,71.50
2018-12-27T10:41:27.822Z,69.50
2018-12-27T10:43:55.731Z,68.10
2018-12-27T10:46:28.424Z,66.20
2018-12-27T10:48:56.276Z,66.60
2018-12-27T10:51:24.190Z,65.10
2018-12-27T10:53:52.205Z,63.20
2018-12-27T10:56:20.167Z,64.30
2018-12-27T10:58:48.152Z,64.30
2018-12-27T11:01:20.257Z,61.00
2018-12-27T11:03:48.326Z,63.40
2018-12-27T11:06:16.196Z,63.00
2018-12-27T11:08:44.035Z,62.00
2018-12-27T11:11:12.088Z,62.40
2018-12-27T11:13:40.021Z,60.30
2018-12-27T11:16:08.038Z,57.30
2018-12-27T11:18:36.031Z,58.50
2018-12-27T11:21:03.979Z,59.80
2018-12-27T11:23:32.793Z,59.20
2018-12-27T11:26:00.774Z,55.90
2018-12-27T11:28:28.774Z,58.00
2018-12-27T11:30:58.101Z,57.40
2018-12-27T11:33:26.143Z,55.90
2018-12-27T11:35:55.894Z,55.20
2018-12-27T11:38:23.885Z,56.80
2018-12-27T11:40:51.850Z,56.10
2018-12-27T11:43:19.762Z,58.70
2018-12-27T11:45:47.698Z,55.10
2018-12-27T11:48:15.631Z,53.80
2018-12-27T11:50:43.491Z,55.10
2018-12-27T11:53:11.400Z,53.40
2018-12-27T11:55:41.647Z,55.90
2018-12-27T11:58:09.563Z,55.60
2018-12-27T12:00:37.931Z,53.40
2018-12-27T12:03:05.992Z,56.80
2018-12-27T12:05:33.989Z,58.80
2018-12-27T12:08:01.854Z,58.60
2018-12-27T12:10:29.778Z,59.40
2018-12-27T12:12:57.754Z,60.40
2018-12-27T12:15:25.542Z,60.30
2018-12-27T12:17:53.415Z,60.20
2018-12-27T12:20:30.221Z,58.60
2018-12-27T12:22:58.148Z,58.30
2018-12-27T12:25:28.281Z,59.60
2018-12-27T12:27:56.637Z,53.40
2018-12-27T12:30:24.810Z,55.50
2018-12-27T12:32:58.955Z,56.80
2018-12-27T12:35:27.579Z,54.70
2018-12-27T12:37:56.031Z,58.50
2018-12-27T12:40:27.028Z,55.30
2018-12-27T12:42:57.844Z,59.30
2018-12-27T12:45:25.994Z,54.10
2018-12-27T12:47:57.500Z,53.20
2018-12-27T12:50:28.588Z,45.10
2018-12-27T12:52:59.973Z,45.20
2018-12-27T12:55:28.311Z,45.00
2018-12-27T12:57:59.343Z,45.40
2018-12-27T13:00:29.487Z,44.90
2018-12-27T13:03:02.843Z,46.50
2018-12-27T13:05:30.999Z,46.10
2018-12-27T13:08:01.856Z,44.20
2018-12-27T13:10:33.413Z,45.30
2018-12-27T13:13:02.841Z,46.10
2018-12-27T13:15:30.885Z,44.50
2018-12-27T13:18:03.184Z,43.60
2018-12-27T13:20:33.475Z,43.60
2018-12-27T13:23:01.771Z,45.40
2018-12-27T13:25:32.881Z,42.40
2018-12-27T13:28:01.286Z,44.70
2018-12-27T13:30:32.219Z,44.80
2018-12-27T13:33:02.691Z,46.80
2018-12-27T13:35:42.995Z,46.10
2018-12-27T13:38:11.436Z,46.60
2018-12-27T13:40:44.078Z,47.00
2018-12-27T13:43:12.167Z,48.00
2018-12-27T13:45:42.618Z,48.30
2018-12-27T13:48:12.745Z,46.00
2018-12-27T13:50:41.062Z,45.40
2018-12-27T13:53:09.648Z,45.70
2018-12-27T13:55:38.190Z,45.70
2018-12-27T13:58:07.967Z,50.70
2018-12-27T14:00:36.568Z,50.20
2018-12-27T14:03:07.059Z,48.60
2018-12-27T14:05:40.492Z,49.60
2018-12-27T14:08:11.710Z,50.30
2018-12-27T14:10:39.650Z,49.10
2018-12-27T14:13:07.688Z,49.20
2018-12-27T14:15:35.555Z,50.60
2018-12-27T14:18:03.993Z,50.40
2018-12-27T14:20:32.062Z,50.10
2018-12-27T14:22:59.932Z,50.80
2018-12-27T14:25:27.884Z,52.20
2018-12-27T14:27:55.941Z,50.20
2018-12-27T14:30:23.842Z,52.40
2018-12-27T14:32:51.734Z,52.10
2018-12-27T14:35:20.203Z,53.10
2018-12-27T14:37:48.193Z,52.60
2018-12-27T14:40:16.149Z,52.40
2018-12-27T14:42:44.147Z,53.20
2018-12-27T14:45:12.261Z,52.80
2018-12-27T14:47:43.217Z,53.60
2018-12-27T14:50:11.326Z,54.30
2018-12-27T14:52:39.292Z,53.60
2018-12-27T14:55:07.483Z,54.30
2018-12-27T14:57:35.488Z,53.50
2018-12-27T15:00:08.101Z,55.10
2018-12-27T15:02:36.407Z,55.30
2018-12-27T15:05:07.960Z,56.00
2018-12-27T15:07:43.954Z,56.20
2018-12-27T15:10:15.719Z,56.40
2018-12-27T15:12:43.704Z,57.10
2018-12-27T15:15:13.287Z,57.50
2018-12-27T15:17:41.397Z,58.10
2018-12-27T15:20:11.130Z,58.30
2018-12-27T15:22:43.008Z,60.30
2018-12-27T15:25:13.059Z,61.40
2018-12-27T15:27:46.479Z,61.40
2018-12-27T15:30:16.948Z,61.40
2018-12-27T15:32:48.324Z,63.00
2018-12-27T15:35:16.631Z,63.00
2018-12-27T15:37:44.993Z,62.00
2018-12-27T15:40:13.825Z,60.60
2018-12-27T15:42:42.001Z,59.60
2018-12-27T15:45:11.629Z,61.70
2018-12-27T15:47:39.610Z,62.20
2018-12-27T15:50:08.036Z,60.10
2018-12-27T15:52:39.298Z,61.40
2018-12-27T15:55:07.611Z,61.10
2018-12-27T15:57:35.762Z,63.50
2018-12-27T16:00:04.099Z,63.90
2018-12-27T16:02:32.029Z,63.50
2018-12-27T16:05:00.207Z,64.30
2018-12-27T16:07:30.404Z,64.90
2018-12-27T16:09:58.436Z,65.00
2018-12-27T16:12:29.455Z,65.40
2018-12-27T16:14:57.604Z,65.70
2018-12-27T16:17:25.706Z,66.20
2018-12-27T16:19:54.053Z,67.30
2018-12-27T16:22:24.554Z,68.10
2018-12-27T16:24:52.711Z,69.40
2018-12-27T16:27:20.762Z,68.80
2018-12-27T16:29:51.015Z,67.40
2018-12-27T16:32:24.152Z,67.30
2018-12-27T16:34:52.236Z,68.40
2018-12-27T16:37:20.155Z,70.40
2018-12-27T16:39:48.269Z,71.40
2018-12-27T16:42:24.719Z,70.50
2018-12-27T16:44:56.611Z,70.30
2018-12-27T16:47:24.872Z,71.10
2018-12-27T16:49:53.108Z,69.90
2018-12-27T16:52:21.157Z,72.50
2018-12-27T16:54:49.305Z,71.60
2018-12-27T16:57:19.911Z,70.50
2018-12-27T16:59:50.531Z,70.40
2018-12-27T17:02:26.508Z,70.90
2018-12-27T17:04:54.542Z,71.30
2018-12-27T17:07:22.673Z,70.90
2018-12-27T17:09:50.657Z,69.30
2018-12-27T17:12:19.747Z,72.00
2018-12-27T17:14:47.847Z,73.70
2018-12-27T17:17:17.347Z,73.10
2018-12-27T17:19:45.436Z,73.00
2018-12-27T17:22:16.527Z,72.20
2018-12-27T17:24:44.625Z,73.40
2018-12-27T17:27:12.637Z,73.40
2018-12-27T17:29:40.538Z,72.70
2018-12-27T17:32:09.201Z,72.00
2018-12-27T17:34:37.519Z,73.50
2018-12-27T17:37:05.515Z,73.70
2018-12-27T17:39:35.124Z,73.80
2018-12-27T17:42:03.044Z,73.00
2018-12-27T17:44:31.004Z,74.20
2018-12-27T17:46:58.905Z,74.50
2018-12-27T17:49:27.025Z,72.40
2018-12-27T17:51:54.966Z,75.10
2018-12-27T17:54:22.938Z,74.10
2018-12-27T17:56:50.880Z,75.80
2018-12-27T17:59:18.921Z,75.70
2018-12-27T18:01:46.823Z,75.80
2018-12-27T18:04:14.777Z,76.50
2018-12-27T18:06:42.633Z,77.10
2018-12-27T18:09:10.538Z,77.90
2018-12-27T18:11:38.494Z,78.60
2018-12-27T18:14:06.309Z,77.40
2018-12-27T18:16:34.181Z,77.80
2018-12-27T18:19:02.101Z,76.70
2018-12-27T18:21:30.010Z,77.60
2018-12-27T18:23:57.840Z,78.30
2018-12-27T18:26:25.646Z,78.80
2018-12-27T18:28:54.556Z,78.80
2018-12-27T18:31:23.031Z,78.20
2018-12-27T18:33:51.522Z,77.30
2018-12-27T18:36:19.571Z,78.70
2018-12-27T18:38:48.723Z,78.90
2018-12-27T18:41:19.715Z,79.90
2018-12-27T18:43:47.713Z,78.90
2018-12-27T18:46:15.610Z,79.60
2018-12-27T18:48:43.714Z,79.10
2018-12-27T18:51:11.813Z,79.30
2018-12-27T18:53:41.030Z,78.90
2018-12-27T18:56:10.503Z,79.40
2018-12-27T18:58:38.451Z,79.40
2018-12-27T19:01:09.518Z,78.90
2018-12-27T19:03:40.085Z,79.30
2018-12-27T19:06:07.895Z,79.30
2018-12-27T19:08:37.568Z,79.40
2018-12-27T19:12:00.540Z,79.40
2018-12-27T19:14:28.498Z,79.90
2018-12-27T19:16:57.744Z,79.30
2018-12-27T19:19:25.779Z,79.70
2018-12-27T19:22:39.558Z,80.90
2018-12-27T19:25:07.570Z,81.30
2018-12-27T19:27:35.483Z,82.10
2018-12-27T19:30:05.788Z,82.00
2018-12-27T19:32:35.931Z,82.60
2018-12-27T19:35:06.276Z,82.00
2018-12-27T19:37:35.685Z,82.10
2018-12-27T19:40:04.485Z,81.60
2018-12-27T19:42:32.624Z,82.10
2018-12-27T19:45:01.532Z,83.60
2018-12-27T19:47:30.336Z,84.00
2018-12-27T19:49:58.329Z,83.90
2018-12-27T19:52:26.500Z,84.50
2018-12-27T19:54:54.780Z,85.10
2018-12-27T19:57:22.609Z,86.60
2018-12-27T19:59:51.194Z,85.30
2018-12-27T20:02:19.181Z,85.00
2018-12-27T20:04:47.202Z,84.70
2018-12-27T20:07:17.309Z,84.90
2018-12-27T20:09:45.572Z,84.40
2018-12-27T20:12:13.421Z,84.50
2018-12-27T20:14:41.342Z,84.60
2018-12-27T20:17:10.471Z,84.30
2018-12-27T20:19:38.331Z,84.00
2018-12-27T20:22:06.357Z,83.30
2018-12-27T20:24:34.208Z,84.00
2018-12-27T20:27:04.871Z,83.50
2018-12-27T20:29:32.754Z,83.80
2018-12-27T20:32:00.654Z,84.20
2018-12-27T20:34:28.705Z,83.20
2018-12-27T20:36:56.688Z,82.80
2018-12-27T20:39:24.640Z,83.80
2018-12-27T20:41:54.870Z,84.10
2018-12-27T20:44:23.772Z,83.80
2018-12-27T20:46:51.682Z,83.80
2018-12-27T20:49:19.850Z,83.80
2018-12-27T20:51:47.791Z,83.50
2018-12-27T20:54:17.092Z,83.80
2018-12-27T20:56:45.367Z,84.00
2018-12-27T20:59:13.232Z,83.90
2018-12-27T21:01:41.139Z,83.90
2018-12-27T21:04:11.636Z,84.50
2018-12-27T21:06:40.772Z,85.20
2018-12-27T21:09:08.612Z,84.20
2018-12-27T21:11:41.596Z,84.10
2018-12-27T21:14:10.592Z,84.90
2018-12-27T21:16:38.614Z,85.30
2018-12-27T21:19:06.566Z,86.10
2018-12-27T21:21:34.479Z,84.50
2018-12-27T21:24:02.290Z,85.20
2018-12-27T21:26:30.856Z,84.20
2018-12-27T21:28:59.299Z,84.10
2018-12-27T21:31:27.374Z,83.20
2018-12-27T21:33:55.337Z,83.70
2018-12-27T21:36:27.204Z,84.70
2018-12-27T21:38:55.342Z,84.10
2018-12-27T21:41:24.672Z,84.20
2018-12-27T21:43:55.455Z,85.10
2018-12-27T21:46:23.565Z,85.40
2018-12-27T21:48:56.319Z,84.80
2018-12-27T21:51:24.430Z,86.90
2018-12-27T21:53:55.599Z,86.50
2018-12-27T21:56:26.245Z,86.10
2018-12-27T21:58:54.245Z,85.30
2018-12-27T22:01:29.680Z,85.20
2018-12-27T22:03:59.572Z,85.30
2018-12-27T22:06:32.262Z,85.30
2018-12-27T22:09:05.029Z,86.10
2018-12-27T22:11:35.311Z,84.90
2018-12-27T22:14:12.550Z,85.30
2018-12-27T22:16:46.504Z,85.60
2018-12-27T22:19:17.214Z,85.90
2018-12-27T22:21:47.574Z,87.60
2018-12-27T22:24:15.710Z,87.10
2018-12-27T22:26:49.347Z,86.80
2018-12-27T22:29:22.668Z,86.80
2018-12-27T22:31:50.985Z,87.20
2018-12-27T22:34:24.109Z,89.60
2018-12-27T22:36:55.303Z,89.70
2018-12-27T22:39:23.213Z,89.10
2018-12-27T22:41:51.214Z,88.20
2018-12-27T22:44:21.400Z,88.70
2018-12-27T22:46:49.548Z,88.60
2018-12-27T22:49:20.860Z,89.10
2018-12-27T22:51:56.395Z,88.70
2018-12-27T22:54:24.390Z,88.90
2018-12-27T22:56:52.291Z,88.70
2018-12-27T22:59:22.029Z,89.80
2018-12-27T23:01:50.060Z,90.50
2018-12-27T23:04:20.690Z,92.10
2018-12-27T23:06:55.608Z,92.50
2018-12-27T23:09:23.693Z,91.60
2018-12-27T23:11:53.351Z,91.30
2018-12-27T23:14:21.550Z,90.80
2018-12-27T23:16:49.524Z,90.20
2018-12-27T23:19:17.557Z,90.30
2018-12-27T23:21:49.250Z,90.40
2018-12-27T23:24:20.035Z,90.10
2018-12-27T23:26:59.463Z,90.70
2018-12-27T23:29:32.300Z,91.00
2018-12-27T23:32:03.590Z,90.30
2018-12-27T23:34:34.484Z,90.50
2018-12-27T23:37:10.780Z,90.70
2018-12-27T23:39:46.492Z,90.50
2018-12-27T23:42:14.541Z,90.90
2018-12-27T23:44:51.160Z,91.00
2018-12-27T23:47:19.135Z,90.80
2018-12-27T23:49:49.670Z,90.50
2018-12-27T23:52:25.328Z,90.90
2018-12-27T23:54:57.869Z,90.60
2018-12-27T23:57:25.907Z,90.80
2018-12-27T23:59:53.965Z,91.00
